sensor_id;sensor_type;location;lat;lon;timestamp;P1;durP1;ratioP1;P2;durP2;ratioP2
20908;SDS011;10614;53.198;6.570;2023-08-06T00:26:33;24.25;;;18.02;;
20908;SDS011;10614;53.198;6.570;2023-08-06T00:28:38;26.67;;;18.42;;
20908;SDS011;10614;53.198;6.570;2023-08-06T00:30:39;28.08;;;19.55;;
20908;SDS011;10614;53.198;6.570;2023-08-06T00:32:56;26.95;;;18.33;;
20908;SDS011;10614;53.198;6.570;2023-08-06T00:35:15;25.42;;;17.40;;
20908;SDS011;10614;53.198;6.570;2023-08-06T00:37:38;25.23;;;18.02;;
20908;SDS011;10614;53.198;6.570;2023-08-06T00:48:05;23.80;;;17.33;;
20908;SDS011;10614;53.198;6.570;2023-08-06T02:19:18;30.20;;;20.63;;
20908;SDS011;10614;53.198;6.570;2023-08-06T02:21:26;33.15;;;21.27;;
20908;SDS011;10614;53.198;6.570;2023-08-06T02:23:30;29.90;;;19.77;;
20908;SDS011;10614;53.198;6.570;2023-08-06T02:25:35;33.53;;;20.98;;
20908;SDS011;10614;53.198;6.570;2023-08-06T03:02:59;29.75;;;20.73;;
20908;SDS011;10614;53.198;6.570;2023-08-06T03:05:14;26.90;;;20.15;;
20908;SDS011;10614;53.198;6.570;2023-08-06T03:07:30;32.63;;;21.63;;
20908;SDS011;10614;53.198;6.570;2023-08-06T03:10:01;32.85;;;21.83;;
20908;SDS011;10614;53.198;6.570;2023-08-06T03:12:19;36.38;;;23.17;;
20908;SDS011;10614;53.198;6.570;2023-08-06T03:14:35;26.88;;;19.83;;
20908;SDS011;10614;53.198;6.570;2023-08-06T03:16:57;29.55;;;20.02;;
20908;SDS011;10614;53.198;6.570;2023-08-06T03:19:13;23.17;;;17.40;;
20908;SDS011;10614;53.198;6.570;2023-08-06T03:21:30;24.33;;;17.15;;
20908;SDS011;10614;53.198;6.570;2023-08-06T03:23:46;23.02;;;15.98;;
20908;SDS011;10614;53.198;6.570;2023-08-06T03:25:52;25.13;;;18.33;;
20908;SDS011;10614;53.198;6.570;2023-08-06T03:28:10;27.67;;;17.50;;
20908;SDS011;10614;53.198;6.570;2023-08-06T03:30:28;27.55;;;17.42;;
20908;SDS011;10614;53.198;6.570;2023-08-06T03:32:38;19.85;;;15.00;;
20908;SDS011;10614;53.198;6.570;2023-08-06T03:34:54;22.02;;;16.52;;
20908;SDS011;10614;53.198;6.570;2023-08-06T03:37:11;27.00;;;17.95;;
20908;SDS011;10614;53.198;6.570;2023-08-06T03:39:15;24.23;;;16.95;;
20908;SDS011;10614;53.198;6.570;2023-08-06T03:41:31;23.50;;;17.15;;
20908;SDS011;10614;53.198;6.570;2023-08-06T03:43:47;27.42;;;19.33;;
20908;SDS011;10614;53.198;6.570;2023-08-06T03:45:52;24.15;;;17.27;;
20908;SDS011;10614;53.198;6.570;2023-08-06T03:53:16;20.15;;;14.40;;
20908;SDS011;10614;53.198;6.570;2023-08-06T03:55:32;20.13;;;14.85;;
20908;SDS011;10614;53.198;6.570;2023-08-06T03:57:38;18.83;;;13.13;;
20908;SDS011;10614;53.198;6.570;2023-08-06T03:59:43;19.92;;;13.20;;
20908;SDS011;10614;53.198;6.570;2023-08-06T04:01:48;19.85;;;13.63;;
20908;SDS011;10614;53.198;6.570;2023-08-06T04:03:55;18.60;;;13.00;;
20908;SDS011;10614;53.198;6.570;2023-08-06T04:06:08;19.02;;;12.70;;
20908;SDS011;10614;53.198;6.570;2023-08-06T04:08:10;18.50;;;12.52;;
20908;SDS011;10614;53.198;6.570;2023-08-06T04:10:27;20.35;;;14.25;;
20908;SDS011;10614;53.198;6.570;2023-08-06T04:12:36;19.33;;;13.07;;
20908;SDS011;10614;53.198;6.570;2023-08-06T04:14:39;18.83;;;12.93;;
20908;SDS011;10614;53.198;6.570;2023-08-06T04:16:41;19.83;;;13.50;;
20908;SDS011;10614;53.198;6.570;2023-08-06T04:18:51;23.38;;;15.20;;
20908;SDS011;10614;53.198;6.570;2023-08-06T04:20:55;21.13;;;14.48;;
20908;SDS011;10614;53.198;6.570;2023-08-06T04:23:04;20.50;;;14.23;;
20908;SDS011;10614;53.198;6.570;2023-08-06T04:25:15;18.17;;;13.10;;
20908;SDS011;10614;53.198;6.570;2023-08-06T04:27:21;18.98;;;12.95;;
20908;SDS011;10614;53.198;6.570;2023-08-06T04:33:48;19.25;;;14.13;;
20908;SDS011;10614;53.198;6.570;2023-08-06T04:35:57;18.25;;;12.70;;
20908;SDS011;10614;53.198;6.570;2023-08-06T04:38:02;17.65;;;12.65;;
20908;SDS011;10614;53.198;6.570;2023-08-06T05:11:08;14.60;;;10.88;;
20908;SDS011;10614;53.198;6.570;2023-08-06T05:13:11;13.77;;;10.15;;
20908;SDS011;10614;53.198;6.570;2023-08-06T05:15:15;14.38;;;10.98;;
20908;SDS011;10614;53.198;6.570;2023-08-06T05:17:20;14.65;;;11.07;;
20908;SDS011;10614;53.198;6.570;2023-08-06T05:19:23;19.45;;;12.73;;
20908;SDS011;10614;53.198;6.570;2023-08-06T05:21:27;19.88;;;12.63;;
20908;SDS011;10614;53.198;6.570;2023-08-06T05:23:31;18.20;;;12.82;;
20908;SDS011;10614;53.198;6.570;2023-08-06T05:25:34;20.05;;;13.23;;
20908;SDS011;10614;53.198;6.570;2023-08-06T05:31:59;18.63;;;12.10;;
20908;SDS011;10614;53.198;6.570;2023-08-06T05:34:03;18.40;;;11.88;;
20908;SDS011;10614;53.198;6.570;2023-08-06T05:36:08;18.63;;;12.48;;
20908;SDS011;10614;53.198;6.570;2023-08-06T05:38:10;18.55;;;12.93;;
20908;SDS011;10614;53.198;6.570;2023-08-06T05:40:26;20.05;;;13.30;;
20908;SDS011;10614;53.198;6.570;2023-08-06T05:42:33;20.20;;;12.93;;
20908;SDS011;10614;53.198;6.570;2023-08-06T05:44:36;15.40;;;11.40;;
20908;SDS011;10614;53.198;6.570;2023-08-06T05:46:43;21.17;;;13.65;;
20908;SDS011;10614;53.198;6.570;2023-08-06T05:48:50;19.20;;;12.80;;
20908;SDS011;10614;53.198;6.570;2023-08-06T05:50:51;19.33;;;13.40;;
20908;SDS011;10614;53.198;6.570;2023-08-06T05:52:55;19.13;;;12.68;;
20908;SDS011;10614;53.198;6.570;2023-08-06T05:54:56;20.92;;;13.85;;
20908;SDS011;10614;53.198;6.570;2023-08-06T05:57:00;19.88;;;13.73;;
20908;SDS011;10614;53.198;6.570;2023-08-06T05:59:05;19.88;;;13.00;;
20908;SDS011;10614;53.198;6.570;2023-08-06T06:01:08;19.20;;;12.82;;
20908;SDS011;10614;53.198;6.570;2023-08-06T06:03:09;18.67;;;13.13;;
20908;SDS011;10614;53.198;6.570;2023-08-06T06:05:23;20.23;;;13.38;;
20908;SDS011;10614;53.198;6.570;2023-08-06T06:07:26;20.08;;;13.23;;
20908;SDS011;10614;53.198;6.570;2023-08-06T06:09:28;18.77;;;13.80;;
20908;SDS011;10614;53.198;6.570;2023-08-06T06:11:32;16.60;;;12.00;;
20908;SDS011;10614;53.198;6.570;2023-08-06T06:13:38;17.48;;;12.50;;
20908;SDS011;10614;53.198;6.570;2023-08-06T06:15:54;17.50;;;11.93;;
20908;SDS011;10614;53.198;6.570;2023-08-06T06:17:58;16.45;;;12.48;;
20908;SDS011;10614;53.198;6.570;2023-08-06T06:20:10;18.65;;;12.82;;
20908;SDS011;10614;53.198;6.570;2023-08-06T06:22:18;18.83;;;12.77;;
20908;SDS011;10614;53.198;6.570;2023-08-06T06:24:25;18.48;;;13.35;;
20908;SDS011;10614;53.198;6.570;2023-08-06T06:26:32;17.48;;;12.88;;
20908;SDS011;10614;53.198;6.570;2023-08-06T06:28:40;16.08;;;12.88;;
20908;SDS011;10614;53.198;6.570;2023-08-06T06:30:51;17.48;;;12.65;;
20908;SDS011;10614;53.198;6.570;2023-08-06T06:33:04;16.60;;;11.88;;
20908;SDS011;10614;53.198;6.570;2023-08-06T06:35:14;15.73;;;11.65;;
20908;SDS011;10614;53.198;6.570;2023-08-06T06:37:38;17.92;;;12.55;;
20908;SDS011;10614;53.198;6.570;2023-08-06T06:39:54;18.23;;;12.00;;
20908;SDS011;10614;53.198;6.570;2023-08-06T06:44:45;16.27;;;11.80;;
20908;SDS011;10614;53.198;6.570;2023-08-06T06:46:52;19.30;;;13.23;;
20908;SDS011;10614;53.198;6.570;2023-08-06T06:49:08;19.35;;;13.57;;
20908;SDS011;10614;53.198;6.570;2023-08-06T06:51:14;18.20;;;13.35;;
20908;SDS011;10614;53.198;6.570;2023-08-06T06:56:01;17.85;;;11.68;;
20908;SDS011;10614;53.198;6.570;2023-08-06T06:58:20;14.68;;;11.00;;
20908;SDS011;10614;53.198;6.570;2023-08-06T07:00:40;15.80;;;11.23;;
20908;SDS011;10614;53.198;6.570;2023-08-06T07:03:00;16.65;;;11.55;;
20908;SDS011;10614;53.198;6.570;2023-08-06T07:05:19;13.90;;;9.80;;
20908;SDS011;10614;53.198;6.570;2023-08-06T07:07:39;12.63;;;9.30;;
20908;SDS011;10614;53.198;6.570;2023-08-06T07:10:14;13.23;;;9.55;;
20908;SDS011;10614;53.198;6.570;2023-08-06T07:12:36;12.30;;;9.20;;
20908;SDS011;10614;53.198;6.570;2023-08-06T07:14:52;16.60;;;11.93;;
20908;SDS011;10614;53.198;6.570;2023-08-06T07:17:05;18.23;;;11.95;;
20908;SDS011;10614;53.198;6.570;2023-08-06T07:19:22;12.63;;;9.52;;
20908;SDS011;10614;53.198;6.570;2023-08-06T07:21:45;12.85;;;9.50;;
20908;SDS011;10614;53.198;6.570;2023-08-06T07:24:10;11.98;;;8.75;;
20908;SDS011;10614;53.198;6.570;2023-08-06T07:40:16;12.25;;;9.35;;
20908;SDS011;10614;53.198;6.570;2023-08-06T07:43:09;13.70;;;9.40;;
20908;SDS011;10614;53.198;6.570;2023-08-06T07:45:32;11.57;;;8.57;;
20908;SDS011;10614;53.198;6.570;2023-08-06T07:47:52;10.27;;;8.82;;
20908;SDS011;10614;53.198;6.570;2023-08-06T07:50:14;10.88;;;8.90;;
20908;SDS011;10614;53.198;6.570;2023-08-06T07:52:32;12.52;;;10.13;;
20908;SDS011;10614;53.198;6.570;2023-08-06T08:05:55;9.60;;;8.32;;
20908;SDS011;10614;53.198;6.570;2023-08-06T08:08:13;10.93;;;9.18;;
20908;SDS011;10614;53.198;6.570;2023-08-06T08:10:33;11.70;;;9.15;;
20908;SDS011;10614;53.198;6.570;2023-08-06T08:12:58;10.70;;;8.20;;
20908;SDS011;10614;53.198;6.570;2023-08-06T08:15:21;13.38;;;9.52;;
20908;SDS011;10614;53.198;6.570;2023-08-06T08:18:03;14.43;;;10.60;;
20908;SDS011;10614;53.198;6.570;2023-08-06T08:52:01;8.00;;;6.15;;
20908;SDS011;10614;53.198;6.570;2023-08-06T08:54:07;8.52;;;6.53;;
20908;SDS011;10614;53.198;6.570;2023-08-06T10:00:37;4.32;;;2.65;;
20908;SDS011;10614;53.198;6.570;2023-08-06T10:03:05;3.95;;;2.85;;
20908;SDS011;10614;53.198;6.570;2023-08-06T10:07:48;3.78;;;2.70;;
20908;SDS011;10614;53.198;6.570;2023-08-06T10:09:52;4.53;;;2.80;;
20908;SDS011;10614;53.198;6.570;2023-08-06T10:11:53;3.63;;;2.67;;
20908;SDS011;10614;53.198;6.570;2023-08-06T10:13:58;4.63;;;3.30;;
20908;SDS011;10614;53.198;6.570;2023-08-06T10:16:07;4.63;;;3.03;;
20908;SDS011;10614;53.198;6.570;2023-08-06T10:18:10;4.30;;;3.20;;
20908;SDS011;10614;53.198;6.570;2023-08-06T10:20:13;4.22;;;2.92;;
20908;SDS011;10614;53.198;6.570;2023-08-06T10:39:13;3.85;;;2.63;;
20908;SDS011;10614;53.198;6.570;2023-08-06T10:41:42;3.55;;;2.80;;
20908;SDS011;10614;53.198;6.570;2023-08-06T10:44:05;3.90;;;2.70;;
20908;SDS011;10614;53.198;6.570;2023-08-06T10:46:09;3.78;;;2.83;;
20908;SDS011;10614;53.198;6.570;2023-08-06T10:48:11;4.22;;;3.00;;
20908;SDS011;10614;53.198;6.570;2023-08-06T10:50:29;3.65;;;2.95;;
20908;SDS011;10614;53.198;6.570;2023-08-06T10:52:32;4.53;;;2.72;;
20908;SDS011;10614;53.198;6.570;2023-08-06T10:54:36;4.82;;;3.00;;
20908;SDS011;10614;53.198;6.570;2023-08-06T10:58:42;4.40;;;2.65;;
20908;SDS011;10614;53.198;6.570;2023-08-06T11:00:44;4.63;;;2.20;;
20908;SDS011;10614;53.198;6.570;2023-08-06T11:02:47;3.60;;;2.50;;
20908;SDS011;10614;53.198;6.570;2023-08-06T11:04:50;4.57;;;2.60;;
20908;SDS011;10614;53.198;6.570;2023-08-06T11:07:08;5.88;;;2.65;;
20908;SDS011;10614;53.198;6.570;2023-08-06T11:09:38;5.57;;;2.60;;
20908;SDS011;10614;53.198;6.570;2023-08-06T11:12:11;4.82;;;2.50;;
20908;SDS011;10614;53.198;6.570;2023-08-06T11:14:19;4.22;;;2.63;;
20908;SDS011;10614;53.198;6.570;2023-08-06T11:16:21;3.30;;;2.50;;
20908;SDS011;10614;53.198;6.570;2023-08-06T11:18:25;3.33;;;2.65;;
20908;SDS011;10614;53.198;6.570;2023-08-06T11:20:27;3.28;;;2.33;;
20908;SDS011;10614;53.198;6.570;2023-08-06T11:22:29;3.83;;;2.80;;
20908;SDS011;10614;53.198;6.570;2023-08-06T11:24:34;3.75;;;2.50;;
20908;SDS011;10614;53.198;6.570;2023-08-06T11:26:47;3.72;;;2.80;;
20908;SDS011;10614;53.198;6.570;2023-08-06T11:29:02;4.18;;;2.65;;
20908;SDS011;10614;53.198;6.570;2023-08-06T11:31:06;3.72;;;2.55;;
20908;SDS011;10614;53.198;6.570;2023-08-06T11:33:52;4.72;;;3.10;;
20908;SDS011;10614;53.198;6.570;2023-08-06T11:36:30;4.30;;;3.05;;
20908;SDS011;10614;53.198;6.570;2023-08-06T11:38:35;4.25;;;2.42;;
20908;SDS011;10614;53.198;6.570;2023-08-06T11:40:45;3.00;;;2.42;;
20908;SDS011;10614;53.198;6.570;2023-08-06T11:43:06;3.22;;;2.50;;
20908;SDS011;10614;53.198;6.570;2023-08-06T11:45:36;3.45;;;2.35;;
20908;SDS011;10614;53.198;6.570;2023-08-06T11:48:05;4.95;;;2.70;;
20908;SDS011;10614;53.198;6.570;2023-08-06T11:50:09;4.25;;;2.70;;
20908;SDS011;10614;53.198;6.570;2023-08-06T11:52:23;3.70;;;2.40;;
20908;SDS011;10614;53.198;6.570;2023-08-06T11:54:30;3.38;;;2.58;;
20908;SDS011;10614;53.198;6.570;2023-08-06T11:56:33;3.67;;;2.40;;
20908;SDS011;10614;53.198;6.570;2023-08-06T11:58:35;3.20;;;2.30;;
20908;SDS011;10614;53.198;6.570;2023-08-06T12:00:39;4.55;;;2.42;;
20908;SDS011;10614;53.198;6.570;2023-08-06T12:02:41;3.90;;;2.60;;
20908;SDS011;10614;53.198;6.570;2023-08-06T12:05:00;3.50;;;2.50;;
20908;SDS011;10614;53.198;6.570;2023-08-06T12:07:05;3.65;;;2.70;;
20908;SDS011;10614;53.198;6.570;2023-08-06T12:09:24;3.55;;;2.45;;
20908;SDS011;10614;53.198;6.570;2023-08-06T12:11:30;3.72;;;2.50;;
20908;SDS011;10614;53.198;6.570;2023-08-06T12:13:33;4.13;;;2.30;;
20908;SDS011;10614;53.198;6.570;2023-08-06T12:15:56;3.17;;;2.22;;
20908;SDS011;10614;53.198;6.570;2023-08-06T12:18:03;3.67;;;2.42;;
20908;SDS011;10614;53.198;6.570;2023-08-06T12:20:27;4.05;;;2.60;;
20908;SDS011;10614;53.198;6.570;2023-08-06T12:22:55;3.20;;;2.38;;
20908;SDS011;10614;53.198;6.570;2023-08-06T12:25:24;4.40;;;2.28;;
20908;SDS011;10614;53.198;6.570;2023-08-06T12:27:31;3.97;;;2.38;;
20908;SDS011;10614;53.198;6.570;2023-08-06T12:29:45;4.50;;;2.30;;
20908;SDS011;10614;53.198;6.570;2023-08-06T12:37:31;8.38;;;2.40;;
20908;SDS011;10614;53.198;6.570;2023-08-06T12:39:53;5.68;;;2.55;;
20908;SDS011;10614;53.198;6.570;2023-08-06T12:42:03;2.50;;;2.20;;
20908;SDS011;10614;53.198;6.570;2023-08-06T12:44:10;3.45;;;2.55;;
20908;SDS011;10614;53.198;6.570;2023-08-06T12:46:12;4.05;;;2.20;;
20908;SDS011;10614;53.198;6.570;2023-08-06T12:48:14;5.25;;;2.50;;
20908;SDS011;10614;53.198;6.570;2023-08-06T12:50:30;3.67;;;2.30;;
20908;SDS011;10614;53.198;6.570;2023-08-06T12:52:52;5.57;;;2.53;;
20908;SDS011;10614;53.198;6.570;2023-08-06T12:55:10;2.92;;;2.20;;
20908;SDS011;10614;53.198;6.570;2023-08-06T12:57:19;5.05;;;2.58;;
20908;SDS011;10614;53.198;6.570;2023-08-06T12:59:22;4.95;;;2.20;;
20908;SDS011;10614;53.198;6.570;2023-08-06T13:01:52;3.05;;;2.22;;
20908;SDS011;10614;53.198;6.570;2023-08-06T13:04:08;3.75;;;2.88;;
20908;SDS011;10614;53.198;6.570;2023-08-06T13:06:46;4.90;;;2.42;;
20908;SDS011;10614;53.198;6.570;2023-08-06T13:09:15;3.83;;;2.40;;
20908;SDS011;10614;53.198;6.570;2023-08-06T13:13:21;4.63;;;2.63;;
20908;SDS011;10614;53.198;6.570;2023-08-06T13:15:27;3.22;;;2.25;;
20908;SDS011;10614;53.198;6.570;2023-08-06T13:17:30;4.10;;;2.70;;
20908;SDS011;10614;53.198;6.570;2023-08-06T13:19:35;4.00;;;2.33;;
20908;SDS011;10614;53.198;6.570;2023-08-06T13:22:01;3.55;;;2.30;;
20908;SDS011;10614;53.198;6.570;2023-08-06T13:24:25;4.80;;;2.33;;
20908;SDS011;10614;53.198;6.570;2023-08-06T13:26:29;3.10;;;1.95;;
20908;SDS011;10614;53.198;6.570;2023-08-06T13:28:32;5.78;;;2.33;;
20908;SDS011;10614;53.198;6.570;2023-08-06T13:30:35;3.92;;;2.25;;
20908;SDS011;10614;53.198;6.570;2023-08-06T13:32:45;5.03;;;2.55;;
20908;SDS011;10614;53.198;6.570;2023-08-06T13:34:49;4.82;;;2.40;;
20908;SDS011;10614;53.198;6.570;2023-08-06T13:36:54;3.83;;;2.33;;
20908;SDS011;10614;53.198;6.570;2023-08-06T13:38:56;4.90;;;2.28;;
20908;SDS011;10614;53.198;6.570;2023-08-06T13:40:59;2.25;;;1.83;;
20908;SDS011;10614;53.198;6.570;2023-08-06T13:43:01;2.92;;;2.20;;
20908;SDS011;10614;53.198;6.570;2023-08-06T13:45:04;4.72;;;2.38;;
20908;SDS011;10614;53.198;6.570;2023-08-06T13:47:07;4.70;;;2.17;;
20908;SDS011;10614;53.198;6.570;2023-08-06T13:49:09;2.55;;;1.95;;
20908;SDS011;10614;53.198;6.570;2023-08-06T13:51:11;2.50;;;2.03;;
20908;SDS011;10614;53.198;6.570;2023-08-06T13:53:13;4.25;;;2.40;;
20908;SDS011;10614;53.198;6.570;2023-08-06T13:55:14;2.72;;;2.25;;
20908;SDS011;10614;53.198;6.570;2023-08-06T13:57:18;4.38;;;2.30;;
20908;SDS011;10614;53.198;6.570;2023-08-06T13:59:20;3.63;;;2.25;;
20908;SDS011;10614;53.198;6.570;2023-08-06T14:01:24;6.63;;;2.20;;
20908;SDS011;10614;53.198;6.570;2023-08-06T14:03:26;3.55;;;2.50;;
20908;SDS011;10614;53.198;6.570;2023-08-06T14:05:28;2.63;;;1.92;;
20908;SDS011;10614;53.198;6.570;2023-08-06T14:07:30;3.92;;;2.20;;
20908;SDS011;10614;53.198;6.570;2023-08-06T14:09:32;3.42;;;2.20;;
20908;SDS011;10614;53.198;6.570;2023-08-06T14:11:35;2.88;;;1.90;;
20908;SDS011;10614;53.198;6.570;2023-08-06T14:13:38;2.25;;;1.95;;
20908;SDS011;10614;53.198;6.570;2023-08-06T14:15:40;4.35;;;2.22;;
20908;SDS011;10614;53.198;6.570;2023-08-06T14:17:46;3.35;;;2.17;;
20908;SDS011;10614;53.198;6.570;2023-08-06T14:19:50;3.13;;;1.90;;
20908;SDS011;10614;53.198;6.570;2023-08-06T14:21:52;3.83;;;2.10;;
20908;SDS011;10614;53.198;6.570;2023-08-06T14:23:56;4.32;;;2.10;;
20908;SDS011;10614;53.198;6.570;2023-08-06T14:26:15;5.72;;;2.35;;
20908;SDS011;10614;53.198;6.570;2023-08-06T14:28:34;3.20;;;2.15;;
20908;SDS011;10614;53.198;6.570;2023-08-06T14:30:38;2.58;;;2.08;;
20908;SDS011;10614;53.198;6.570;2023-08-06T14:32:39;4.75;;;2.10;;
20908;SDS011;10614;53.198;6.570;2023-08-06T14:34:41;3.08;;;2.00;;
20908;SDS011;10614;53.198;6.570;2023-08-06T14:36:42;2.42;;;1.80;;
20908;SDS011;10614;53.198;6.570;2023-08-06T14:38:44;4.13;;;2.20;;
20908;SDS011;10614;53.198;6.570;2023-08-06T14:40:46;3.05;;;1.98;;
20908;SDS011;10614;53.198;6.570;2023-08-06T14:42:48;2.53;;;1.90;;
20908;SDS011;10614;53.198;6.570;2023-08-06T14:44:50;2.88;;;1.70;;
20908;SDS011;10614;53.198;6.570;2023-08-06T14:46:53;2.38;;;1.83;;
20908;SDS011;10614;53.198;6.570;2023-08-06T14:49:02;3.15;;;1.95;;
20908;SDS011;10614;53.198;6.570;2023-08-06T14:51:18;2.95;;;1.90;;
20908;SDS011;10614;53.198;6.570;2023-08-06T14:53:23;4.07;;;2.30;;
20908;SDS011;10614;53.198;6.570;2023-08-06T14:55:31;4.18;;;2.05;;
20908;SDS011;10614;53.198;6.570;2023-08-06T14:57:35;3.20;;;1.70;;
20908;SDS011;10614;53.198;6.570;2023-08-06T15:00:00;2.10;;;1.48;;
20908;SDS011;10614;53.198;6.570;2023-08-06T15:05:03;3.60;;;1.58;;
20908;SDS011;10614;53.198;6.570;2023-08-06T15:07:05;2.30;;;1.70;;
20908;SDS011;10614;53.198;6.570;2023-08-06T15:09:07;2.72;;;1.90;;
20908;SDS011;10614;53.198;6.570;2023-08-06T15:11:09;2.28;;;1.60;;
20908;SDS011;10614;53.198;6.570;2023-08-06T15:13:14;2.50;;;1.58;;
20908;SDS011;10614;53.198;6.570;2023-08-06T15:15:36;2.88;;;1.70;;
20908;SDS011;10614;53.198;6.570;2023-08-06T15:17:42;2.33;;;1.40;;
20908;SDS011;10614;53.198;6.570;2023-08-06T15:19:59;3.53;;;1.88;;
20908;SDS011;10614;53.198;6.570;2023-08-06T15:24:59;3.40;;;1.70;;
20908;SDS011;10614;53.198;6.570;2023-08-06T15:27:20;2.17;;;1.65;;
20908;SDS011;10614;53.198;6.570;2023-08-06T15:29:46;2.40;;;1.88;;
20908;SDS011;10614;53.198;6.570;2023-08-06T15:32:12;3.33;;;2.00;;
20908;SDS011;10614;53.198;6.570;2023-08-06T15:34:32;3.20;;;1.90;;
20908;SDS011;10614;53.198;6.570;2023-08-06T15:36:54;3.30;;;1.85;;
20908;SDS011;10614;53.198;6.570;2023-08-06T15:39:02;2.92;;;2.00;;
20908;SDS011;10614;53.198;6.570;2023-08-06T15:41:07;4.68;;;2.00;;
20908;SDS011;10614;53.198;6.570;2023-08-06T15:43:32;3.40;;;1.95;;
20908;SDS011;10614;53.198;6.570;2023-08-06T15:45:35;2.08;;;1.50;;
20908;SDS011;10614;53.198;6.570;2023-08-06T15:47:36;3.28;;;2.00;;
20908;SDS011;10614;53.198;6.570;2023-08-06T15:49:40;3.50;;;1.98;;
20908;SDS011;10614;53.198;6.570;2023-08-06T15:51:42;2.80;;;1.80;;
20908;SDS011;10614;53.198;6.570;2023-08-06T15:53:53;3.70;;;1.92;;
20908;SDS011;10614;53.198;6.570;2023-08-06T16:02:05;3.65;;;1.75;;
20908;SDS011;10614;53.198;6.570;2023-08-06T16:04:25;3.22;;;1.92;;
20908;SDS011;10614;53.198;6.570;2023-08-06T16:06:39;2.33;;;1.67;;
20908;SDS011;10614;53.198;6.570;2023-08-06T16:09:01;2.35;;;1.70;;
20908;SDS011;10614;53.198;6.570;2023-08-06T16:11:12;4.47;;;1.95;;
20908;SDS011;10614;53.198;6.570;2023-08-06T16:13:33;2.92;;;1.80;;
20908;SDS011;10614;53.198;6.570;2023-08-06T16:18:31;3.42;;;1.90;;
20908;SDS011;10614;53.198;6.570;2023-08-06T16:20:52;5.38;;;2.10;;
20908;SDS011;10614;53.198;6.570;2023-08-06T16:23:13;3.70;;;1.77;;
20908;SDS011;10614;53.198;6.570;2023-08-06T16:25:36;2.85;;;1.88;;
20908;SDS011;10614;53.198;6.570;2023-08-06T16:27:39;3.33;;;2.05;;
20908;SDS011;10614;53.198;6.570;2023-08-06T16:30:00;4.05;;;2.03;;
20908;SDS011;10614;53.198;6.570;2023-08-06T16:32:10;2.00;;;1.67;;
20908;SDS011;10614;53.198;6.570;2023-08-06T16:34:30;6.05;;;2.15;;
20908;SDS011;10614;53.198;6.570;2023-08-06T16:36:32;4.15;;;1.65;;
20908;SDS011;10614;53.198;6.570;2023-08-06T16:38:34;2.25;;;1.50;;
20908;SDS011;10614;53.198;6.570;2023-08-06T16:40:37;3.33;;;1.70;;
20908;SDS011;10614;53.198;6.570;2023-08-06T16:42:41;4.30;;;2.08;;
20908;SDS011;10614;53.198;6.570;2023-08-06T16:44:44;4.25;;;1.58;;
20908;SDS011;10614;53.198;6.570;2023-08-06T16:46:58;3.22;;;1.70;;
20908;SDS011;10614;53.198;6.570;2023-08-06T16:49:13;3.55;;;1.60;;
20908;SDS011;10614;53.198;6.570;2023-08-06T16:51:17;3.28;;;1.35;;
20908;SDS011;10614;53.198;6.570;2023-08-06T16:53:19;5.82;;;1.40;;
20908;SDS011;10614;53.198;6.570;2023-08-06T16:55:21;4.85;;;1.95;;
20908;SDS011;10614;53.198;6.570;2023-08-06T16:57:23;4.22;;;1.50;;
20908;SDS011;10614;53.198;6.570;2023-08-06T16:59:25;3.97;;;1.70;;
20908;SDS011;10614;53.198;6.570;2023-08-06T17:01:27;2.70;;;1.80;;
20908;SDS011;10614;53.198;6.570;2023-08-06T17:03:28;2.97;;;1.75;;
20908;SDS011;10614;53.198;6.570;2023-08-06T17:05:30;3.05;;;1.70;;
20908;SDS011;10614;53.198;6.570;2023-08-06T17:07:34;4.40;;;2.00;;
20908;SDS011;10614;53.198;6.570;2023-08-06T17:09:36;2.33;;;1.60;;
20908;SDS011;10614;53.198;6.570;2023-08-06T17:11:37;3.50;;;2.05;;
20908;SDS011;10614;53.198;6.570;2023-08-06T17:13:39;4.65;;;1.75;;
20908;SDS011;10614;53.198;6.570;2023-08-06T17:15:41;4.53;;;1.92;;
20908;SDS011;10614;53.198;6.570;2023-08-06T17:17:43;2.60;;;1.70;;
20908;SDS011;10614;53.198;6.570;2023-08-06T17:19:45;3.38;;;1.70;;
20908;SDS011;10614;53.198;6.570;2023-08-06T17:21:53;2.95;;;1.90;;
20908;SDS011;10614;53.198;6.570;2023-08-06T17:26:54;2.53;;;1.50;;
20908;SDS011;10614;53.198;6.570;2023-08-06T17:28:59;3.03;;;1.70;;
20908;SDS011;10614;53.198;6.570;2023-08-06T17:31:06;2.58;;;1.50;;
20908;SDS011;10614;53.198;6.570;2023-08-06T17:33:07;2.85;;;1.80;;
20908;SDS011;10614;53.198;6.570;2023-08-06T17:37:13;1.85;;;1.58;;
20908;SDS011;10614;53.198;6.570;2023-08-06T17:39:19;2.78;;;1.65;;
20908;SDS011;10614;53.198;6.570;2023-08-06T17:41:22;3.38;;;1.83;;
20908;SDS011;10614;53.198;6.570;2023-08-06T17:43:24;3.00;;;1.70;;
20908;SDS011;10614;53.198;6.570;2023-08-06T17:45:26;3.53;;;2.00;;
20908;SDS011;10614;53.198;6.570;2023-08-06T17:47:37;3.25;;;1.90;;
20908;SDS011;10614;53.198;6.570;2023-08-06T18:02:10;4.07;;;2.47;;
20908;SDS011;10614;53.198;6.570;2023-08-06T18:04:12;5.75;;;2.50;;
20908;SDS011;10614;53.198;6.570;2023-08-06T18:06:14;6.30;;;3.35;;
20908;SDS011;10614;53.198;6.570;2023-08-06T18:08:16;4.90;;;3.40;;
20908;SDS011;10614;53.198;6.570;2023-08-06T18:10:22;7.13;;;3.90;;
20908;SDS011;10614;53.198;6.570;2023-08-06T18:12:27;5.13;;;3.80;;
20908;SDS011;10614;53.198;6.570;2023-08-06T18:51:24;9.18;;;6.10;;
20908;SDS011;10614;53.198;6.570;2023-08-06T18:53:25;12.07;;;5.80;;
20908;SDS011;10614;53.198;6.570;2023-08-06T18:55:28;8.07;;;5.90;;
20908;SDS011;10614;53.198;6.570;2023-08-06T18:57:31;7.07;;;5.28;;
20908;SDS011;10614;53.198;6.570;2023-08-06T18:59:34;6.43;;;4.93;;
20908;SDS011;10614;53.198;6.570;2023-08-06T19:01:35;6.88;;;5.05;;
20908;SDS011;10614;53.198;6.570;2023-08-06T19:03:40;8.30;;;5.00;;
20908;SDS011;10614;53.198;6.570;2023-08-06T19:05:42;8.10;;;4.80;;
20908;SDS011;10614;53.198;6.570;2023-08-06T19:07:46;7.70;;;5.13;;
20908;SDS011;10614;53.198;6.570;2023-08-06T19:09:50;9.82;;;5.22;;
20908;SDS011;10614;53.198;6.570;2023-08-06T19:11:52;7.05;;;5.45;;
20908;SDS011;10614;53.198;6.570;2023-08-06T19:13:54;7.95;;;5.28;;
20908;SDS011;10614;53.198;6.570;2023-08-06T19:15:57;8.40;;;5.78;;
20908;SDS011;10614;53.198;6.570;2023-08-06T19:17:59;6.45;;;5.30;;
20908;SDS011;10614;53.198;6.570;2023-08-06T19:20:02;7.45;;;5.30;;
20908;SDS011;10614;53.198;6.570;2023-08-06T19:22:04;8.13;;;5.45;;
20908;SDS011;10614;53.198;6.570;2023-08-06T19:24:08;7.68;;;5.63;;
20908;SDS011;10614;53.198;6.570;2023-08-06T19:26:16;6.68;;;5.22;;
20908;SDS011;10614;53.198;6.570;2023-08-06T20:16:45;9.98;;;7.43;;
20908;SDS011;10614;53.198;6.570;2023-08-06T20:18:48;11.73;;;7.77;;
20908;SDS011;10614;53.198;6.570;2023-08-06T20:20:50;10.32;;;7.50;;
20908;SDS011;10614;53.198;6.570;2023-08-06T20:22:52;13.65;;;8.43;;
20908;SDS011;10614;53.198;6.570;2023-08-06T21:06:16;12.73;;;7.93;;
20908;SDS011;10614;53.198;6.570;2023-08-06T21:08:18;11.77;;;8.68;;
20908;SDS011;10614;53.198;6.570;2023-08-06T21:10:19;13.35;;;8.43;;
20908;SDS011;10614;53.198;6.570;2023-08-06T21:12:21;14.25;;;8.88;;
20908;SDS011;10614;53.198;6.570;2023-08-06T21:14:23;12.73;;;8.10;;
20908;SDS011;10614;53.198;6.570;2023-08-06T21:16:24;9.82;;;8.13;;
20908;SDS011;10614;53.198;6.570;2023-08-06T21:18:27;10.10;;;7.85;;
20908;SDS011;10614;53.198;6.570;2023-08-06T21:20:30;9.68;;;7.57;;
20908;SDS011;10614;53.198;6.570;2023-08-06T21:22:33;10.70;;;8.05;;
20908;SDS011;10614;53.198;6.570;2023-08-06T21:24:35;12.63;;;8.27;;
20908;SDS011;10614;53.198;6.570;2023-08-06T21:26:37;11.38;;;8.13;;
20908;SDS011;10614;53.198;6.570;2023-08-06T21:28:38;11.00;;;7.82;;